Time;durP1;ratioP1;P1;durP2;ratioP2;P2;SDS_P1;SDS_P2;PMS_P1;PMS_P2;Temp;Humidity;BMP_temperature;BMP_pressure;BME280_temperature;BME280_humidity;BME280_pressure;Samples;Min_cycle;Max_cycle;Signal;HPM_P1;HPM_P2
2023/12/11 00:00:26;;;;;;;;;;;12.30;99.90;;;;;;7334581;19;110584;-70
2023/12/11 00:02:55;;;;;;;;;;;12.30;99.90;;;;;;7335061;19;108960;-70
2023/12/11 00:05:22;;;;;;;;;;;12.30;99.90;;;;;;7335087;19;109629;-70
2023/12/11 00:07:49;;;;;;;;;;;12.30;99.90;;;;;;7336410;19;109731;-70
2023/12/11 00:10:19;;;;;;;;;;;12.30;99.90;;;;;;7337767;19;109819;-69
2023/12/11 00:12:47;;;;;;;;;;;12.40;99.90;;;;;;7335061;19;108875;-70
2023/12/11 00:15:14;;;;;;;;;;;12.30;99.90;;;;;;7333943;19;110281;-70
2023/12/11 00:17:41;;;;;;;;;;;12.30;99.90;;;;;;7335848;19;109020;-70
2023/12/11 00:20:08;;;;;;;;;;;12.40;99.90;;;;;;7342593;19;108892;-70
2023/12/11 00:22:36;;;;;;;;;;;12.40;99.90;;;;;;7334827;19;108839;-70
2023/12/11 00:25:04;;;;;;;;;;;12.40;99.90;;;;;;7337601;19;109873;-70
2023/12/11 00:27:31;;;;;;;;;;;12.30;99.90;;;;;;7336919;19;110340;-70
2023/12/11 00:29:59;;;;;;;;;;;12.40;99.90;;;;;;7334037;19;108368;-70
2023/12/11 00:32:26;;;;;;;;;;;12.40;99.90;;;;;;7338104;19;109022;-70
2023/12/11 00:34:54;;;;;;;;;;;12.40;99.90;;;;;;7336437;19;109824;-70
2023/12/11 00:37:21;;;;;;;;;;;12.40;99.90;;;;;;7335346;19;108551;-70
2023/12/11 00:42:36;;;;;;;;;;;12.40;99.90;;;;;;7342200;19;109352;-88
2023/12/11 00:45:07;;;;;;;;;;;12.40;99.90;;;;;;7339163;19;109274;-89
2023/12/11 00:47:34;;;;;;;;;;;12.40;99.90;;;;;;7339082;19;111960;-89
2023/12/11 00:50:01;;;;;;;;;;;12.40;99.90;;;;;;7339746;19;108787;-89
2023/12/11 00:52:33;;;;;;;;;;;12.40;99.90;;;;;;7338972;19;109134;-89
2023/12/11 00:55:00;;;;;;;;;;;12.40;99.90;;;;;;7337167;19;112641;-89
2023/12/11 00:57:27;;;;;;;;;;;12.40;99.90;;;;;;7336607;19;108707;-89
2023/12/11 00:59:55;;;;;;;;;;;12.40;99.90;;;;;;7336495;19;111811;-89
2023/12/11 01:02:22;;;;;;;;;;;12.40;99.90;;;;;;7338535;19;112749;-89
2023/12/11 01:04:49;;;;;;;;;;;12.40;99.90;;;;;;7345457;19;108677;-89
2023/12/11 01:07:16;;;;;;;;;;;12.30;99.90;;;;;;7343031;19;109745;-89
2023/12/11 01:09:44;;;;;;;;;;;12.30;99.90;;;;;;7340994;19;108694;-70
2023/12/11 01:12:11;;;;;;;;;;;12.30;99.90;;;;;;7335798;19;108952;-70
2023/12/11 01:14:38;;;;;;;;;;;12.30;99.90;;;;;;7337204;19;110846;-71
2023/12/11 01:17:05;;;;;;;;;;;12.30;99.90;;;;;;7334852;19;110727;-71
2023/12/11 01:19:53;;;;;;;;;;;12.30;99.90;;;;;;7335513;19;112139;-70
2023/12/11 01:22:20;;;;;;;;;;;12.30;99.90;;;;;;7335882;19;110080;-71
2023/12/11 01:24:47;;;;;;;;;;;12.30;99.90;;;;;;7335236;19;109264;-69
2023/12/11 01:27:14;;;;;;;;;;;12.30;99.90;;;;;;7338751;19;109583;-69
2023/12/11 01:29:41;;;;;;;;;;;12.20;99.90;;;;;;7333280;19;108831;-70
2023/12/11 01:32:09;;;;;;;;;;;12.20;99.90;;;;;;7329952;19;110898;-69
2023/12/11 01:34:36;;;;;;;;;;;12.20;99.90;;;;;;7334245;19;109716;-70
2023/12/11 01:37:04;;;;;;;;;;;12.20;99.90;;;;;;7334586;19;108599;-70
2023/12/11 01:39:31;;;;;;;;;;;12.20;99.90;;;;;;7328661;19;111726;-70
2023/12/11 01:41:58;;;;;;;;;;;12.20;99.90;;;;;;7333968;19;109137;-74
2023/12/11 01:44:25;;;;;;;;;;;12.20;99.90;;;;;;7330381;19;109090;-76
2023/12/11 01:46:53;;;;;;;;;;;12.20;99.90;;;;;;7330015;19;109191;-77
2023/12/11 01:49:20;;;;;;;;;;;12.20;99.90;;;;;;7339055;19;109682;-76
2023/12/11 01:51:48;;;;;;;;;;;12.20;99.90;;;;;;7334890;19;109079;-78
2023/12/11 01:54:16;;;;;;;;;;;12.20;99.90;;;;;;7333583;19;110146;-76
2023/12/11 01:56:43;;;;;;;;;;;12.20;99.90;;;;;;7333583;19;109548;-74
2023/12/11 02:01:54;;;;;;;;;;;12.10;99.90;;;;;;7371618;19;109660;-88
2023/12/11 02:04:22;;;;;;;;;;;12.10;99.90;;;;;;7371463;19;108194;-89
2023/12/11 02:06:50;;;;;;;;;;;12.10;99.90;;;;;;7367936;19;108389;-90
2023/12/11 02:09:18;;;;;;;;;;;12.00;99.90;;;;;;7360708;19;109074;-89
2023/12/11 02:11:45;;;;;;;;;;;12.00;99.90;;;;;;7349555;19;110261;-89
2023/12/11 02:14:13;;;;;;;;;;;12.00;99.90;;;;;;7337024;19;109252;-88
2023/12/11 02:16:40;;;;;;;;;;;12.00;99.90;;;;;;7345182;19;108780;-89
2023/12/11 02:19:07;;;;;;;;;;;12.00;99.90;;;;;;7340436;19;111947;-89
2023/12/11 02:21:35;;;;;;;;;;;12.00;99.90;;;;;;7338503;19;112838;-89
2023/12/11 02:24:05;;;;;;;;;;;12.00;99.90;;;;;;7341015;19;108693;-89
2023/12/11 02:26:32;;;;;;;;;;;12.00;99.90;;;;;;7335524;19;112679;-89
2023/12/11 02:28:59;;;;;;;;;;;12.00;99.90;;;;;;7332875;19;112888;-89
2023/12/11 02:31:26;;;;;;;;;;;11.90;99.90;;;;;;7340881;19;110394;-89
2023/12/11 02:33:53;;;;;;;;;;;11.90;99.90;;;;;;7337413;19;109685;-89
2023/12/11 02:36:21;;;;;;;;;;;11.90;99.90;;;;;;7334395;19;109069;-88
2023/12/11 02:38:48;;;;;;;;;;;11.90;99.90;;;;;;7332283;19;112414;-89
2023/12/11 02:41:15;;;;;;;;;;;11.90;99.90;;;;;;7332990;19;113609;-89
2023/12/11 02:43:42;;;;;;;;;;;11.90;99.90;;;;;;7329242;19;109224;-89
2023/12/11 02:46:09;;;;;;;;;;;11.90;99.90;;;;;;7333073;19;111866;-89
2023/12/11 02:48:37;;;;;;;;;;;11.90;99.90;;;;;;7337615;19;110469;-89
2023/12/11 02:51:04;;;;;;;;;;;11.90;99.90;;;;;;7336631;19;108618;-89
2023/12/11 02:53:31;;;;;;;;;;;11.90;99.90;;;;;;7335801;19;108894;-89
2023/12/11 02:55:59;;;;;;;;;;;11.90;99.90;;;;;;7336407;19;109705;-88
2023/12/11 02:58:26;;;;;;;;;;;11.90;99.90;;;;;;7338889;19;112107;-89
2023/12/11 03:00:53;;;;;;;;;;;11.80;99.90;;;;;;7339390;19;109418;-89
2023/12/11 03:03:20;;;;;;;;;;;11.80;99.90;;;;;;7339182;19;108472;-90
2023/12/11 03:05:47;;;;;;;;;;;11.80;99.90;;;;;;7341478;19;109771;-89
2023/12/11 03:08:19;;;;;;;;;;;11.80;99.90;;;;;;7336609;19;114071;-90
2023/12/11 03:10:46;;;;;;;;;;;11.80;99.90;;;;;;7340567;19;109914;-89
2023/12/11 03:13:16;;;;;;;;;;;11.80;99.90;;;;;;7337933;19;109529;-70
2023/12/11 03:15:43;;;;;;;;;;;11.80;99.90;;;;;;7344492;19;110241;-70
2023/12/11 03:18:10;;;;;;;;;;;11.80;99.90;;;;;;7339115;19;108949;-70
2023/12/11 03:20:38;;;;;;;;;;;11.70;99.90;;;;;;7340099;19;110118;-70
2023/12/11 03:23:05;;;;;;;;;;;11.80;99.90;;;;;;7337604;19;108438;-71
2023/12/11 03:25:32;;;;;;;;;;;11.80;99.90;;;;;;7338128;19;110033;-71
2023/12/11 03:27:59;;;;;;;;;;;11.70;99.90;;;;;;7340520;19;110978;-71
2023/12/11 03:30:26;;;;;;;;;;;11.70;99.90;;;;;;7336492;19;109221;-71
2023/12/11 03:32:54;;;;;;;;;;;11.70;99.90;;;;;;7337074;19;108881;-71
2023/12/11 03:35:21;;;;;;;;;;;11.70;99.90;;;;;;7338784;19;114351;-71
2023/12/11 03:37:48;;;;;;;;;;;11.70;99.90;;;;;;7342421;19;109159;-71
2023/12/11 03:40:15;;;;;;;;;;;11.70;99.90;;;;;;7337746;19;109294;-71
2023/12/11 03:42:42;;;;;;;;;;;11.70;99.90;;;;;;7336387;19;109764;-72
2023/12/11 03:45:13;;;;;;;;;;;11.70;99.90;;;;;;7335508;19;110287;-72
2023/12/11 03:47:40;;;;;;;;;;;11.70;99.90;;;;;;7338635;19;110115;-71
2023/12/11 03:50:07;;;;;;;;;;;11.70;99.90;;;;;;7336245;19;108687;-71
2023/12/11 03:52:34;;;;;;;;;;;11.70;99.90;;;;;;7338096;19;108680;-72
2023/12/11 03:55:02;;;;;;;;;;;11.70;99.90;;;;;;7338389;19;110055;-71
2023/12/11 03:57:29;;;;;;;;;;;11.70;99.90;;;;;;7336623;19;109637;-70
2023/12/11 03:59:56;;;;;;;;;;;11.60;99.90;;;;;;7339772;19;108711;-71
2023/12/11 04:02:24;;;;;;;;;;;11.70;99.90;;;;;;7337613;19;108537;-71
2023/12/11 04:04:51;;;;;;;;;;;11.70;99.90;;;;;;7337740;19;112604;-74
2023/12/11 04:07:18;;;;;;;;;;;11.60;99.90;;;;;;7331817;19;110447;-79
2023/12/11 04:09:45;;;;;;;;;;;11.70;99.90;;;;;;7335633;19;108415;-78
2023/12/11 04:12:12;;;;;;;;;;;11.70;99.90;;;;;;7334190;19;109453;-75
2023/12/11 04:14:39;;;;;;;;;;;11.70;99.90;;;;;;7332320;19;111173;-78
2023/12/11 04:17:07;;;;;;;;;;;11.70;99.90;;;;;;7335342;19;108412;-72
2023/12/11 04:19:34;;;;;;;;;;;11.70;99.90;;;;;;7337718;19;108468;-71
2023/12/11 04:22:01;;;;;;;;;;;11.70;99.90;;;;;;7333527;19;108721;-73
2023/12/11 04:24:28;;;;;;;;;;;11.70;99.90;;;;;;7331999;19;108522;-74
2023/12/11 04:26:55;;;;;;;;;;;11.70;99.90;;;;;;7334755;19;110048;-71
2023/12/11 04:29:22;;;;;;;;;;;11.70;99.90;;;;;;7332544;19;109879;-71
2023/12/11 04:31:49;;;;;;;;;;;11.70;99.90;;;;;;7337336;19;108603;-71
2023/12/11 04:34:17;;;;;;;;;;;11.70;99.90;;;;;;7330181;19;109539;-71
2023/12/11 04:36:48;;;;;;;;;;;11.70;99.90;;;;;;7335075;19;119741;-71
2023/12/11 04:39:15;;;;;;;;;;;11.70;99.90;;;;;;7335491;19;110144;-70
2023/12/11 04:41:42;;;;;;;;;;;11.70;99.90;;;;;;7342943;19;109697;-71
2023/12/11 04:44:09;;;;;;;;;;;11.70;99.90;;;;;;7335404;19;108752;-70
2023/12/11 04:46:37;;;;;;;;;;;11.60;99.90;;;;;;7337758;19;111404;-70
2023/12/11 04:49:05;;;;;;;;;;;11.70;99.90;;;;;;7333784;19;109674;-71
2023/12/11 04:51:32;;;;;;;;;;;11.70;99.90;;;;;;7333752;19;108776;-71
2023/12/11 04:54:00;;;;;;;;;;;11.60;99.90;;;;;;7337355;19;110171;-71
2023/12/11 04:56:27;;;;;;;;;;;11.70;99.90;;;;;;7337830;19;108393;-71
2023/12/11 04:58:54;;;;;;;;;;;11.60;99.90;;;;;;7335448;19;110019;-71
2023/12/11 05:01:25;;;;;;;;;;;11.70;99.90;;;;;;7335726;19;109763;-70
2023/12/11 05:03:53;;;;;;;;;;;11.70;99.90;;;;;;7341022;19;109212;-70
2023/12/11 05:06:20;;;;;;;;;;;11.70;99.90;;;;;;7335152;19;109571;-70
2023/12/11 05:08:47;;;;;;;;;;;11.70;99.90;;;;;;7336470;19;108816;-71
2023/12/11 05:11:14;;;;;;;;;;;11.70;99.90;;;;;;7335865;19;108755;-70
2023/12/11 05:13:41;;;;;;;;;;;11.70;99.90;;;;;;7332860;19;109108;-70
2023/12/11 05:16:08;;;;;;;;;;;11.70;99.90;;;;;;7336974;19;109020;-70
2023/12/11 05:18:37;;;;;;;;;;;11.60;99.90;;;;;;7332671;19;112412;-70
2023/12/11 05:21:08;;;;;;;;;;;11.70;99.90;;;;;;7332796;19;109584;-70
2023/12/11 05:23:35;;;;;;;;;;;11.70;99.90;;;;;;7336209;19;110014;-70
2023/12/11 05:26:02;;;;;;;;;;;11.70;99.90;;;;;;7342644;19;110241;-70
2023/12/11 05:28:29;;;;;;;;;;;11.70;99.90;;;;;;7334295;19;108992;-70
2023/12/11 05:30:57;;;;;;;;;;;11.70;99.90;;;;;;7333405;19;110612;-70
2023/12/11 05:33:24;;;;;;;;;;;11.70;99.90;;;;;;7333302;19;112953;-70
2023/12/11 05:35:51;;;;;;;;;;;11.70;99.90;;;;;;7335440;19;108700;-70
2023/12/11 05:38:18;;;;;;;;;;;11.70;99.90;;;;;;7334109;19;108813;-70
2023/12/11 05:40:45;;;;;;;;;;;11.70;99.90;;;;;;7334977;19;109112;-70
2023/12/11 05:43:13;;;;;;;;;;;11.70;99.90;;;;;;7329825;19;108947;-70
2023/12/11 05:45:40;;;;;;;;;;;11.70;99.90;;;;;;7326724;19;109108;-70
2023/12/11 05:48:07;;;;;;;;;;;11.70;99.90;;;;;;7338740;19;110129;-69
2023/12/11 05:50:34;;;;;;;;;;;11.80;99.90;;;;;;7331832;19;108869;-70
2023/12/11 05:53:04;;;;;;;;;;;11.70;99.90;;;;;;7333691;19;110994;-70
2023/12/11 05:55:31;;;;;;;;;;;11.80;99.90;;;;;;7332602;19;108726;-69
2023/12/11 05:57:58;;;;;;;;;;;11.80;99.90;;;;;;7334526;19;108884;-73
2023/12/11 06:00:26;;;;;;;;;;;11.80;99.90;;;;;;7332598;19;109960;-70
2023/12/11 06:02:53;;;;;;;;;;;11.80;99.90;;;;;;7332772;19;108922;-70
2023/12/11 06:05:20;;;;;;;;;;;11.80;99.90;;;;;;7333290;19;108979;-70
2023/12/11 06:07:47;;;;;;;;;;;11.80;99.90;;;;;;7332329;19;109863;-70
2023/12/11 06:10:14;;;;;;;;;;;11.80;99.90;;;;;;7334274;19;109358;-70
2023/12/11 06:12:42;;;;;;;;;;;11.90;99.90;;;;;;7334936;19;108946;-70
2023/12/11 06:15:09;;;;;;;;;;;11.90;99.90;;;;;;7330632;19;109349;-70
2023/12/11 06:17:36;;;;;;;;;;;11.90;99.90;;;;;;7336080;19;109099;-70
2023/12/11 06:20:07;;;;;;;;;;;11.90;99.90;;;;;;7333229;19;109188;-71
2023/12/11 06:22:34;;;;;;;;;;;11.90;99.90;;;;;;7332023;19;108795;-69
2023/12/11 06:25:02;;;;;;;;;;;11.90;99.90;;;;;;7332391;19;109108;-69
2023/12/11 06:27:29;;;;;;;;;;;11.90;99.90;;;;;;7330903;19;109705;-70
2023/12/11 06:29:57;;;;;;;;;;;11.90;99.90;;;;;;7340950;19;109952;-69
2023/12/11 06:32:24;;;;;;;;;;;11.90;99.90;;;;;;7346778;19;109752;-69
2023/12/11 06:34:51;;;;;;;;;;;11.90;99.90;;;;;;7349207;19;108633;-69
2023/12/11 06:37:18;;;;;;;;;;;11.90;99.90;;;;;;7346403;19;109388;-69
2023/12/11 06:39:48;;;;;;;;;;;11.90;99.90;;;;;;7347111;19;110098;-69
2023/12/11 06:42:15;;;;;;;;;;;11.90;99.90;;;;;;7348502;19;110573;-69
2023/12/11 06:44:42;;;;;;;;;;;12.00;99.90;;;;;;7348028;19;108416;-69
2023/12/11 06:47:10;;;;;;;;;;;12.00;99.90;;;;;;7345274;19;109930;-69
2023/12/11 06:49:37;;;;;;;;;;;12.00;99.90;;;;;;7346554;19;108822;-69
2023/12/11 06:52:05;;;;;;;;;;;12.00;99.90;;;;;;7352692;19;108469;-69
2023/12/11 06:54:32;;;;;;;;;;;12.00;99.90;;;;;;7346964;19;108571;-69
2023/12/11 06:56:59;;;;;;;;;;;12.00;99.90;;;;;;7345473;19;111043;-68
2023/12/11 06:59:27;;;;;;;;;;;12.00;99.90;;;;;;7346926;19;110165;-73
2023/12/11 07:01:54;;;;;;;;;;;12.00;99.90;;;;;;7345640;19;109254;-71
2023/12/11 07:04:22;;;;;;;;;;;12.00;99.90;;;;;;7345994;19;109104;-72
2023/12/11 07:06:49;;;;;;;;;;;12.00;99.90;;;;;;7345845;19;109849;-71
2023/12/11 07:09:16;;;;;;;;;;;12.00;99.90;;;;;;7345928;19;109079;-71
2023/12/11 07:11:44;;;;;;;;;;;12.10;99.90;;;;;;7348153;19;109372;-72
2023/12/11 07:14:11;;;;;;;;;;;12.10;99.90;;;;;;7352224;19;110568;-71
2023/12/11 07:16:38;;;;;;;;;;;12.10;99.90;;;;;;7347198;19;109454;-73
2023/12/11 07:19:07;;;;;;;;;;;12.10;99.90;;;;;;7345654;19;111172;-72
2023/12/11 07:21:34;;;;;;;;;;;12.10;99.90;;;;;;7346963;19;108631;-72
2023/12/11 07:24:02;;;;;;;;;;;12.10;99.90;;;;;;7344762;19;109280;-72
2023/12/11 07:26:29;;;;;;;;;;;12.10;99.90;;;;;;7347430;19;109209;-71
2023/12/11 07:28:57;;;;;;;;;;;12.10;99.90;;;;;;7349551;19;108823;-72
2023/12/11 07:31:24;;;;;;;;;;;12.10;99.90;;;;;;7347197;19;109047;-71
2023/12/11 07:33:51;;;;;;;;;;;12.10;99.90;;;;;;7346370;19;109902;-77
2023/12/11 07:36:22;;;;;;;;;;;12.10;99.90;;;;;;7351287;19;108707;-75
2023/12/11 07:38:49;;;;;;;;;;;12.10;99.90;;;;;;7342152;19;109098;-76
2023/12/11 07:41:22;;;;;;;;;;;12.10;99.90;;;;;;7346356;19;108567;-79
2023/12/11 07:43:50;;;;;;;;;;;12.10;99.90;;;;;;7339094;19;109360;-72
2023/12/11 07:46:17;;;;;;;;;;;12.10;99.90;;;;;;7338828;19;110735;-73
2023/12/11 07:48:45;;;;;;;;;;;12.10;99.90;;;;;;7337045;19;108748;-72
2023/12/11 07:51:18;;;;;;;;;;;12.10;99.90;;;;;;7340459;19;109125;-72
2023/12/11 07:53:46;;;;;;;;;;;12.10;99.90;;;;;;7338640;19;111784;-72
2023/12/11 07:56:19;;;;;;;;;;;12.10;99.90;;;;;;7337697;19;109387;-72
2023/12/11 07:58:47;;;;;;;;;;;12.10;99.90;;;;;;7343129;19;108637;-72
2023/12/11 08:01:14;;;;;;;;;;;12.10;99.90;;;;;;7335587;19;108859;-72
2023/12/11 08:03:41;;;;;;;;;;;12.10;99.90;;;;;;7338655;19;108931;-72
2023/12/11 08:06:09;;;;;;;;;;;12.10;99.90;;;;;;7339500;19;110293;-72
2023/12/11 08:08:45;;;;;;;;;;;12.10;99.90;;;;;;7339301;19;109103;-72
2023/12/11 08:11:17;;;;;;;;;;;12.10;99.90;;;;;;7338884;19;108785;-72
2023/12/11 08:13:44;;;;;;;;;;;12.10;99.90;;;;;;7338042;19;109817;-72
2023/12/11 08:16:12;;;;;;;;;;;12.10;99.90;;;;;;7338102;19;109096;-72
2023/12/11 08:18:46;;;;;;;;;;;12.10;99.90;;;;;;7344152;19;108507;-72
2023/12/11 08:21:16;;;;;;;;;;;12.10;99.90;;;;;;7337956;19;111082;-72
2023/12/11 08:23:44;;;;;;;;;;;12.10;99.90;;;;;;7337242;19;109768;-72
2023/12/11 08:26:11;;;;;;;;;;;12.10;99.90;;;;;;7335414;19;109101;-72
2023/12/11 08:28:38;;;;;;;;;;;12.10;99.90;;;;;;7338030;19;110238;-72
2023/12/11 08:31:06;;;;;;;;;;;12.10;99.90;;;;;;7337296;19;110937;-72
2023/12/11 08:33:33;;;;;;;;;;;12.10;99.90;;;;;;7335969;19;111924;-72
2023/12/11 08:36:00;;;;;;;;;;;12.10;99.90;;;;;;7333962;19;108442;-73
2023/12/11 08:38:27;;;;;;;;;;;12.10;99.90;;;;;;7338594;19;110592;-72
2023/12/11 08:40:55;;;;;;;;;;;12.10;99.90;;;;;;7343467;19;110219;-72
2023/12/11 08:43:22;;;;;;;;;;;12.10;99.90;;;;;;7336055;19;110116;-71
2023/12/11 08:45:49;;;;;;;;;;;12.10;99.90;;;;;;7338491;19;110121;-72
2023/12/11 08:48:16;;;;;;;;;;;12.10;99.90;;;;;;7338170;19;108290;-72
2023/12/11 08:50:44;;;;;;;;;;;12.00;99.90;;;;;;7338784;19;108952;-72
2023/12/11 08:53:11;;;;;;;;;;;12.00;99.90;;;;;;7336045;19;109295;-75
2023/12/11 08:55:39;;;;;;;;;;;12.00;99.90;;;;;;7338994;19;108494;-72
2023/12/11 08:58:06;;;;;;;;;;;12.00;99.90;;;;;;7338191;19;109609;-72
2023/12/11 09:00:33;;;;;;;;;;;12.00;99.90;;;;;;7335846;19;112386;-72
2023/12/11 09:03:01;;;;;;;;;;;12.00;99.90;;;;;;7340707;19;109527;-72
2023/12/11 09:05:28;;;;;;;;;;;12.00;99.90;;;;;;7336141;19;110038;-73
2023/12/11 09:07:55;;;;;;;;;;;12.10;99.90;;;;;;7338210;19;109076;-78
2023/12/11 09:10:22;;;;;;;;;;;12.00;99.90;;;;;;7336313;19;109248;-79
2023/12/11 09:12:50;;;;;;;;;;;12.00;99.90;;;;;;7337291;19;110522;-76
2023/12/11 09:15:17;;;;;;;;;;;12.00;99.90;;;;;;7337680;19;109324;-77
2023/12/11 09:17:44;;;;;;;;;;;12.00;99.90;;;;;;7338879;19;108832;-72
2023/12/11 09:20:12;;;;;;;;;;;12.00;99.90;;;;;;7335698;19;110037;-73
2023/12/11 09:22:42;;;;;;;;;;;12.00;99.90;;;;;;7338512;19;109170;-73
2023/12/11 09:25:10;;;;;;;;;;;12.00;99.90;;;;;;7341533;19;108982;-74
2023/12/11 09:27:37;;;;;;;;;;;12.00;99.90;;;;;;7336585;19;109248;-72
2023/12/11 09:30:05;;;;;;;;;;;12.00;99.90;;;;;;7336202;19;109633;-71
2023/12/11 09:32:32;;;;;;;;;;;12.00;99.90;;;;;;7335967;19;109445;-71
2023/12/11 09:35:00;;;;;;;;;;;12.00;99.90;;;;;;7333682;19;108812;-70
2023/12/11 09:37:27;;;;;;;;;;;12.00;99.90;;;;;;7334842;19;109201;-71
2023/12/11 09:39:55;;;;;;;;;;;12.10;99.90;;;;;;7331535;19;110523;-72
2023/12/11 09:42:22;;;;;;;;;;;12.00;99.90;;;;;;7329396;19;108781;-72
2023/12/11 09:44:50;;;;;;;;;;;12.00;99.90;;;;;;7334808;19;108699;-72
2023/12/11 09:47:20;;;;;;;;;;;12.00;99.90;;;;;;7338080;19;110262;-72
2023/12/11 09:49:47;;;;;;;;;;;12.00;99.90;;;;;;7332532;19;110559;-72
2023/12/11 09:52:14;;;;;;;;;;;12.00;99.90;;;;;;7333827;19;110244;-72
2023/12/11 09:54:42;;;;;;;;;;;12.00;99.90;;;;;;7335924;19;109357;-71
2023/12/11 09:57:11;;;;;;;;;;;12.00;99.90;;;;;;7333425;19;109443;-72
2023/12/11 09:59:40;;;;;;;;;;;12.10;99.90;;;;;;7336058;19;109173;-72
2023/12/11 10:02:14;;;;;;;;;;;12.00;99.90;;;;;;7334100;19;108331;-71
2023/12/11 10:05:00;;;;;;;;;;;12.00;99.90;;;;;;7333028;19;108732;-71
2023/12/11 10:07:27;;;;;;;;;;;12.10;99.90;;;;;;7332642;19;110048;-71
2023/12/11 10:09:54;;;;;;;;;;;12.00;99.90;;;;;;7339373;19;111295;-71
2023/12/11 10:12:21;;;;;;;;;;;12.00;99.90;;;;;;7334598;19;109583;-71
2023/12/11 10:15:02;;;;;;;;;;;12.00;99.90;;;;;;7337403;19;108874;-71
2023/12/11 10:17:31;;;;;;;;;;;12.00;99.90;;;;;;7334521;19;108856;-72
2023/12/11 10:19:58;;;;;;;;;;;12.00;99.90;;;;;;7335670;19;109476;-71
2023/12/11 10:22:30;;;;;;;;;;;12.00;99.90;;;;;;7332863;19;110923;-71
2023/12/11 10:24:58;;;;;;;;;;;12.00;99.90;;;;;;7335754;19;109405;-71
2023/12/11 10:27:26;;;;;;;;;;;11.90;99.90;;;;;;7332096;19;109070;-71
2023/12/11 10:30:11;;;;;;;;;;;11.90;99.90;;;;;;7341935;19;109148;-72
2023/12/11 10:32:39;;;;;;;;;;;11.90;99.90;;;;;;7334317;19;108994;-71
2023/12/11 10:35:06;;;;;;;;;;;11.90;99.90;;;;;;7335418;19;108879;-73
2023/12/11 10:37:36;;;;;;;;;;;11.80;99.90;;;;;;7334781;19;109359;-71
2023/12/11 10:40:04;;;;;;;;;;;11.80;99.90;;;;;;7333349;19;109402;-72
2023/12/11 10:42:31;;;;;;;;;;;11.80;99.90;;;;;;7330925;19;115058;-71
2023/12/11 10:44:58;;;;;;;;;;;11.70;99.90;;;;;;7333771;19;109387;-71
2023/12/11 10:47:26;;;;;;;;;;;11.60;99.90;;;;;;7334248;19;110221;-72
2023/12/11 10:50:01;;;;;;;;;;;11.70;99.90;;;;;;7333018;19;108359;-72
2023/12/11 10:52:29;;;;;;;;;;;11.60;99.90;;;;;;7339841;19;108960;-71
2023/12/11 10:54:56;;;;;;;;;;;11.70;99.90;;;;;;7333694;19;109203;-72
2023/12/11 10:57:24;;;;;;;;;;;11.70;99.90;;;;;;7333912;19;108662;-72
2023/12/11 10:59:51;;;;;;;;;;;11.70;99.90;;;;;;7330378;19;111866;-72
2023/12/11 11:02:20;;;;;;;;;;;11.70;99.90;;;;;;7333853;19;110790;-72
2023/12/11 11:04:47;;;;;;;;;;;11.60;99.90;;;;;;7332303;19;108613;-73
2023/12/11 11:07:19;;;;;;;;;;;11.60;99.90;;;;;;7332795;19;111174;-72
2023/12/11 11:10:16;;;;;;;;;;;11.60;99.90;;;;;;7335144;19;109469;-73
2023/12/11 11:12:47;;;;;;;;;;;11.60;99.90;;;;;;7331643;19;109058;-72
2023/12/11 11:15:25;;;;;;;;;;;11.60;99.90;;;;;;7336488;19;110545;-74
2023/12/11 11:17:55;;;;;;;;;;;11.60;99.90;;;;;;7336239;19;112915;-72
2023/12/11 11:20:23;;;;;;;;;;;11.50;99.90;;;;;;7340737;19;109086;-74
2023/12/11 11:22:50;;;;;;;;;;;11.60;99.90;;;;;;7338365;19;109052;-73
2023/12/11 11:25:30;;;;;;;;;;;11.50;99.90;;;;;;7339676;19;109429;-73
2023/12/11 11:27:58;;;;;;;;;;;11.60;99.90;;;;;;7341460;19;110165;-72
2023/12/11 11:30:52;;;;;;;;;;;11.60;99.90;;;;;;7346399;19;109055;-73
2023/12/11 11:33:19;;;;;;;;;;;11.60;99.90;;;;;;7346724;19;110004;-72
2023/12/11 11:35:47;;;;;;;;;;;11.50;99.90;;;;;;7343883;19;110120;-73
2023/12/11 11:38:15;;;;;;;;;;;11.50;99.90;;;;;;7345466;19;109446;-73
2023/12/11 11:40:43;;;;;;;;;;;11.50;99.90;;;;;;7336583;19;109136;-74
2023/12/11 11:43:11;;;;;;;;;;;11.50;99.90;;;;;;7339118;19;109233;-75
2023/12/11 11:45:43;;;;;;;;;;;11.50;99.90;;;;;;7337008;19;109284;-74
2023/12/11 11:48:10;;;;;;;;;;;11.50;99.90;;;;;;7336185;19;110005;-73
2023/12/11 11:50:52;;;;;;;;;;;11.50;99.90;;;;;;7336561;19;109150;-74
2023/12/11 11:53:20;;;;;;;;;;;11.50;99.90;;;;;;7337233;19;109168;-74
2023/12/11 11:55:47;;;;;;;;;;;11.50;99.90;;;;;;7337887;19;113378;-74
2023/12/11 11:58:14;;;;;;;;;;;11.50;99.90;;;;;;7336767;19;109836;-73
2023/12/11 12:00:42;;;;;;;;;;;11.50;99.90;;;;;;7344887;19;109334;-73
2023/12/11 12:03:10;;;;;;;;;;;11.50;99.90;;;;;;7338958;19;110860;-74
2023/12/11 12:05:51;;;;;;;;;;;11.40;99.90;;;;;;7339638;19;112889;-74
2023/12/11 12:08:19;;;;;;;;;;;11.50;99.90;;;;;;7337333;19;108997;-74
2023/12/11 12:10:46;;;;;;;;;;;11.50;99.90;;;;;;7339790;19;108966;-74
2023/12/11 12:13:14;;;;;;;;;;;11.40;99.90;;;;;;7341326;19;109077;-74
2023/12/11 12:15:42;;;;;;;;;;;11.50;99.90;;;;;;7340138;19;109644;-72
2023/12/11 12:18:10;;;;;;;;;;;11.40;99.90;;;;;;7338412;19;109634;-75
2023/12/11 12:20:38;;;;;;;;;;;11.40;99.90;;;;;;7339363;19;109837;-71
2023/12/11 12:23:05;;;;;;;;;;;11.30;99.90;;;;;;7341455;19;109312;-74
2023/12/11 12:25:33;;;;;;;;;;;11.40;99.90;;;;;;7334197;19;108152;-72
2023/12/11 12:28:03;;;;;;;;;;;11.40;99.90;;;;;;7334735;19;110327;-74
2023/12/11 12:30:32;;;;;;;;;;;11.40;99.90;;;;;;7334776;19;108931;-74
2023/12/11 12:33:00;;;;;;;;;;;11.40;99.90;;;;;;7335269;19;109167;-75
2023/12/11 12:35:28;;;;;;;;;;;11.40;99.90;;;;;;7333738;19;109574;-78
2023/12/11 12:37:56;;;;;;;;;;;11.50;99.90;;;;;;7335203;19;109011;-77
2023/12/11 12:40:23;;;;;;;;;;;11.40;99.90;;;;;;7332720;19;109530;-78
2023/12/11 12:42:51;;;;;;;;;;;11.40;99.90;;;;;;7340076;19;112862;-79
2023/12/11 12:45:25;;;;;;;;;;;11.40;99.90;;;;;;7331603;19;110359;-75
2023/12/11 12:48:02;;;;;;;;;;;11.40;99.90;;;;;;7332940;19;109216;-74
2023/12/11 12:50:30;;;;;;;;;;;11.40;99.90;;;;;;7331912;19;109354;-73
2023/12/11 12:53:07;;;;;;;;;;;11.40;99.90;;;;;;7339543;19;109119;-73
2023/12/11 12:55:36;;;;;;;;;;;11.40;99.90;;;;;;7340008;19;111327;-89
2023/12/11 12:58:04;;;;;;;;;;;11.40;99.90;;;;;;7346742;19;108843;-89
2023/12/11 13:00:35;;;;;;;;;;;11.50;99.90;;;;;;7344698;19;112078;-89
2023/12/11 13:03:03;;;;;;;;;;;11.40;99.90;;;;;;7344370;19;109303;-89
2023/12/11 13:05:38;;;;;;;;;;;11.50;99.90;;;;;;7347250;19;108753;-89
2023/12/11 13:08:05;;;;;;;;;;;11.50;99.90;;;;;;7342901;19;109064;-72
2023/12/11 13:10:32;;;;;;;;;;;11.40;99.90;;;;;;7336817;19;108560;-73
2023/12/11 13:13:07;;;;;;;;;;;11.40;99.90;;;;;;7336974;19;109378;-73
2023/12/11 13:15:35;;;;;;;;;;;11.40;99.90;;;;;;7334650;19;110169;-72
2023/12/11 13:18:02;;;;;;;;;;;11.40;99.90;;;;;;7334646;19;108563;-72
2023/12/11 13:20:29;;;;;;;;;;;11.50;99.90;;;;;;7336707;19;109171;-72
2023/12/11 13:22:56;;;;;;;;;;;11.50;99.90;;;;;;7336168;19;111026;-72
2023/12/11 13:25:23;;;;;;;;;;;11.50;99.90;;;;;;7337235;19;109272;-72
2023/12/11 13:27:51;;;;;;;;;;;11.50;99.90;;;;;;7338517;19;111398;-73
2023/12/11 13:30:18;;;;;;;;;;;11.50;99.90;;;;;;7333928;19;108410;-73
2023/12/11 13:32:45;;;;;;;;;;;11.60;99.90;;;;;;7332947;19;111254;-73
2023/12/11 13:35:13;;;;;;;;;;;11.60;99.90;;;;;;7334114;19;111055;-72
2023/12/11 13:37:40;;;;;;;;;;;11.60;99.90;;;;;;7335419;19;109232;-72
2023/12/11 13:40:07;;;;;;;;;;;11.60;99.90;;;;;;7331602;19;109115;-73
2023/12/11 13:42:36;;;;;;;;;;;11.60;99.90;;;;;;7330591;19;110862;-73
2023/12/11 13:45:04;;;;;;;;;;;11.70;99.90;;;;;;7331041;19;108454;-73
2023/12/11 13:47:32;;;;;;;;;;;11.70;99.90;;;;;;7333744;19;109032;-72
2023/12/11 13:50:00;;;;;;;;;;;11.70;99.90;;;;;;7337292;19;109594;-72
2023/12/11 13:52:27;;;;;;;;;;;11.70;99.90;;;;;;7333648;19;109842;-73
2023/12/11 13:54:55;;;;;;;;;;;11.80;99.90;;;;;;7330362;19;109186;-72
2023/12/11 13:57:22;;;;;;;;;;;11.80;99.90;;;;;;7331090;19;109101;-71
2023/12/11 13:59:49;;;;;;;;;;;11.80;99.90;;;;;;7332695;19;109352;-72
2023/12/11 14:02:17;;;;;;;;;;;11.80;99.90;;;;;;7335013;19;109473;-73
2023/12/11 14:05:05;;;;;;;;;;;11.90;99.90;;;;;;7332950;19;109012;-77
2023/12/11 14:07:33;;;;;;;;;;;11.90;99.90;;;;;;7335153;19;109515;-76
2023/12/11 14:10:00;;;;;;;;;;;11.90;99.90;;;;;;7333111;19;109030;-74
2023/12/11 14:12:28;;;;;;;;;;;11.90;99.90;;;;;;7337176;19;108900;-78
2023/12/11 14:14:55;;;;;;;;;;;11.90;99.90;;;;;;7333481;19;110581;-75